createdAt,value
2022-08-30T00:01:27.667Z,21.41
2022-08-30T00:03:58.375Z,21.41
2022-08-30T00:06:29.266Z,21.43
2022-08-30T00:08:57.613Z,21.43
2022-08-30T00:11:29.121Z,21.37
2022-08-30T00:13:58.097Z,21.36
2022-08-30T00:16:26.971Z,21.37
2022-08-30T00:18:55.493Z,21.38
2022-08-30T00:21:23.769Z,21.39
2022-08-30T00:23:53.014Z,21.35
2022-08-30T00:26:20.990Z,21.33
2022-08-30T00:28:48.872Z,21.28
2022-08-30T00:31:16.831Z,21.26
2022-08-30T00:33:45.034Z,21.22
2022-08-30T00:36:13.164Z,21.20
2022-08-30T00:38:41.027Z,21.17
2022-08-30T00:41:11.143Z,21.16
2022-08-30T00:43:40.026Z,21.11
2022-08-30T00:46:10.478Z,21.09
2022-08-30T00:48:44.619Z,21.02
2022-08-30T00:51:17.984Z,20.97
2022-08-30T00:54:00.504Z,20.91
2022-08-30T00:56:35.802Z,20.84
2022-08-30T00:59:21.115Z,20.83
2022-08-30T01:02:01.332Z,20.79
2022-08-30T01:05:16.213Z,20.74
2022-08-30T01:08:10.031Z,20.69
2022-08-30T01:10:42.512Z,20.69
2022-08-30T01:13:42.802Z,20.69
2022-08-30T01:16:48.445Z,20.72
2022-08-30T01:19:48.011Z,20.76
2022-08-30T01:22:35.577Z,20.79
2022-08-30T01:25:28.453Z,20.78
2022-08-30T01:30:54.501Z,20.83
2022-08-30T01:33:39.172Z,20.87
2022-08-30T01:36:13.099Z,20.90
2022-08-30T01:38:48.409Z,20.88
2022-08-30T01:41:50.889Z,20.92
2022-08-30T01:44:28.098Z,20.87
2022-08-30T01:47:15.067Z,20.85
2022-08-30T01:50:24.296Z,20.74
2022-08-30T01:52:56.245Z,20.67
2022-08-30T01:55:41.145Z,20.63
2022-08-30T01:58:13.208Z,20.60
2022-08-30T02:01:04.048Z,20.50
2022-08-30T02:03:35.429Z,20.50
2022-08-30T02:06:08.200Z,20.48
2022-08-30T02:08:48.069Z,20.46
2022-08-30T02:11:34.818Z,20.44
2022-08-30T02:14:34.362Z,20.39
2022-08-30T02:17:15.678Z,20.41
2022-08-30T02:19:59.498Z,20.39
2022-08-30T02:22:31.348Z,20.37
2022-08-30T02:25:18.709Z,20.34
2022-08-30T02:27:52.270Z,20.33
2022-08-30T02:30:27.311Z,20.34
2022-08-30T02:33:05.916Z,20.31
2022-08-30T02:35:46.659Z,20.26
2022-08-30T02:38:19.913Z,20.24
2022-08-30T02:46:25.268Z,20.32
2022-08-30T02:48:56.231Z,20.35
2022-08-30T02:51:24.982Z,20.37
2022-08-30T02:54:30.888Z,20.42
2022-08-30T02:57:07.112Z,20.43
2022-08-30T02:59:57.429Z,20.43
2022-08-30T03:02:51.237Z,20.39
2022-08-30T03:06:06.321Z,20.40
2022-08-30T03:08:36.856Z,20.45
2022-08-30T03:11:26.261Z,20.47
2022-08-30T03:14:00.474Z,20.47
2022-08-30T03:19:38.593Z,20.46
2022-08-30T03:22:19.287Z,20.43
2022-08-30T03:25:01.640Z,20.41
2022-08-30T03:27:52.060Z,20.34
2022-08-30T03:30:29.931Z,20.27
2022-08-30T03:32:58.621Z,20.21
2022-08-30T03:35:28.742Z,20.14
2022-08-30T03:38:01.449Z,20.12
2022-08-30T03:40:29.657Z,20.09
2022-08-30T03:42:57.837Z,20.06
2022-08-30T03:45:25.801Z,20.02
2022-08-30T03:47:53.670Z,19.95
2022-08-30T03:50:21.574Z,19.94
2022-08-30T03:52:50.883Z,19.94
2022-08-30T03:55:18.903Z,19.89
2022-08-30T03:57:46.772Z,19.85
2022-08-30T04:00:16.688Z,19.83
2022-08-30T04:02:44.742Z,19.78
2022-08-30T04:05:14.755Z,19.77
2022-08-30T04:07:46.487Z,19.73
2022-08-30T04:10:15.887Z,19.70
2022-08-30T04:12:48.764Z,19.68
2022-08-30T04:15:18.243Z,19.65
2022-08-30T04:17:48.041Z,19.62
2022-08-30T04:20:16.227Z,19.66
2022-08-30T04:22:44.237Z,19.71
2022-08-30T04:25:15.745Z,19.74
2022-08-30T04:27:46.436Z,19.78
2022-08-30T04:30:16.057Z,19.81
2022-08-30T04:32:45.021Z,19.77
2022-08-30T04:35:13.568Z,19.75
2022-08-30T04:37:41.880Z,19.77
2022-08-30T04:40:11.116Z,19.82
2022-08-30T04:42:39.301Z,19.82
2022-08-30T04:45:12.320Z,19.83
2022-08-30T04:47:40.389Z,19.83
2022-08-30T04:50:08.914Z,19.83
2022-08-30T04:52:36.773Z,19.84
2022-08-30T04:55:06.500Z,19.83
2022-08-30T04:57:34.545Z,19.77
2022-08-30T05:00:02.785Z,19.69
2022-08-30T05:02:32.134Z,19.67
2022-08-30T05:05:17.676Z,19.66
2022-08-30T05:07:45.606Z,19.63
2022-08-30T05:10:13.639Z,19.61
2022-08-30T05:12:43.308Z,19.61
2022-08-30T05:15:12.627Z,19.57
2022-08-30T05:17:42.317Z,19.53
2022-08-30T05:20:12.417Z,19.52
2022-08-30T05:22:49.940Z,19.47
2022-08-30T05:25:23.085Z,19.43
2022-08-30T05:27:51.424Z,19.39
2022-08-30T05:30:20.262Z,19.39
2022-08-30T05:32:49.727Z,19.42
2022-08-30T05:35:23.486Z,19.38
2022-08-30T05:37:53.641Z,19.37
2022-08-30T05:40:22.598Z,19.40
2022-08-30T05:42:50.520Z,19.42
2022-08-30T05:45:18.451Z,19.39
2022-08-30T05:47:47.601Z,19.35
2022-08-30T05:50:17.180Z,19.35
2022-08-30T05:52:45.336Z,19.36
2022-08-30T05:55:13.884Z,19.37
2022-08-30T05:57:42.671Z,19.39
2022-08-30T06:00:13.479Z,19.43
2022-08-30T06:02:41.999Z,19.46
2022-08-30T06:05:10.993Z,19.55
2022-08-30T06:07:44.553Z,19.61
2022-08-30T06:10:13.267Z,19.61
2022-08-30T06:12:43.113Z,19.62
2022-08-30T06:15:12.146Z,19.69
2022-08-30T06:17:40.177Z,19.71
2022-08-30T06:20:09.605Z,19.78
2022-08-30T06:22:38.708Z,19.85
2022-08-30T06:25:09.363Z,19.84
2022-08-30T06:27:37.757Z,19.88
2022-08-30T06:30:08.334Z,20.00
2022-08-30T06:32:36.628Z,20.15
2022-08-30T06:35:05.831Z,20.34
2022-08-30T06:37:34.089Z,20.55
2022-08-30T06:40:04.118Z,20.76
2022-08-30T06:42:34.573Z,20.93
2022-08-30T06:45:10.413Z,21.03
2022-08-30T06:47:39.419Z,21.15
2022-08-30T06:50:08.787Z,21.27
2022-08-30T06:52:40.159Z,21.41
2022-08-30T06:55:08.603Z,21.60
2022-08-30T06:57:38.084Z,21.79
2022-08-30T07:00:08.313Z,22.00
2022-08-30T07:02:38.761Z,22.13
2022-08-30T07:05:07.875Z,22.31
2022-08-30T07:07:36.598Z,22.53
2022-08-30T07:10:05.799Z,22.72
2022-08-30T07:12:33.722Z,22.90
2022-08-30T07:15:03.605Z,23.04
2022-08-30T07:17:48.656Z,23.20
2022-08-30T07:20:18.475Z,23.43
2022-08-30T07:22:46.416Z,23.56
2022-08-30T07:25:15.403Z,23.71
2022-08-30T07:27:44.092Z,23.78
2022-08-30T07:30:14.146Z,23.95
2022-08-30T07:32:42.214Z,24.12
2022-08-30T07:35:10.118Z,24.20
2022-08-30T07:37:38.072Z,24.31
2022-08-30T07:40:07.584Z,24.38
2022-08-30T07:42:35.628Z,24.59
2022-08-30T07:45:04.203Z,24.80
2022-08-30T07:47:33.749Z,24.77
2022-08-30T07:50:02.171Z,24.82
2022-08-30T07:52:30.917Z,24.95
2022-08-30T07:54:59.806Z,25.15
2022-08-30T07:57:27.702Z,25.32
2022-08-30T07:59:55.773Z,25.52
2022-08-30T08:02:23.800Z,25.57
2022-08-30T08:04:53.016Z,25.57
2022-08-30T08:07:23.622Z,25.56
2022-08-30T08:09:51.490Z,25.59
2022-08-30T08:12:19.419Z,25.76
2022-08-30T08:14:47.303Z,25.88
2022-08-30T08:17:15.262Z,25.87
2022-08-30T08:19:43.317Z,25.64
2022-08-30T08:22:21.565Z,25.52
2022-08-30T08:24:50.570Z,25.47
2022-08-30T08:27:18.547Z,25.55
2022-08-30T08:29:46.510Z,25.65
2022-08-30T08:32:14.433Z,25.81
2022-08-30T08:34:42.458Z,25.94
2022-08-30T08:37:10.362Z,25.95
2022-08-30T08:39:39.612Z,25.90
2022-08-30T08:42:17.038Z,25.93
2022-08-30T08:44:55.932Z,25.92
2022-08-30T08:47:29.505Z,25.92
2022-08-30T08:50:00.802Z,25.91
2022-08-30T08:52:55.115Z,25.94
2022-08-30T08:55:25.838Z,25.96
2022-08-30T08:57:53.681Z,25.93
2022-08-30T09:00:21.703Z,25.90
2022-08-30T09:02:55.960Z,25.92
2022-08-30T09:05:26.398Z,26.02
2022-08-30T09:08:04.601Z,26.21
2022-08-30T09:10:49.883Z,26.32
2022-08-30T09:13:19.029Z,26.52
2022-08-30T09:15:49.946Z,26.58
2022-08-30T09:18:40.948Z,26.54
2022-08-30T09:21:11.619Z,26.39
2022-08-30T09:23:49.966Z,26.27
2022-08-30T09:26:33.170Z,26.31
2022-08-30T09:29:01.242Z,26.44
2022-08-30T09:31:30.857Z,26.52
2022-08-30T09:34:03.336Z,26.60
2022-08-30T09:36:36.297Z,26.79
2022-08-30T09:39:07.592Z,27.04
2022-08-30T09:41:43.011Z,27.27
2022-08-30T09:44:16.691Z,27.39
2022-08-30T09:46:47.498Z,27.39
2022-08-30T09:49:34.775Z,27.42
2022-08-30T09:52:19.700Z,27.56
2022-08-30T09:55:08.362Z,27.72
2022-08-30T09:57:52.667Z,27.87
2022-08-30T10:00:23.247Z,28.00
2022-08-30T10:03:05.046Z,28.14
2022-08-30T10:05:39.443Z,28.43
2022-08-30T10:08:18.750Z,28.57
2022-08-30T10:10:53.692Z,28.83
2022-08-30T10:13:43.464Z,28.90
2022-08-30T10:16:22.756Z,29.06
2022-08-30T10:19:00.821Z,29.15
2022-08-30T10:21:35.467Z,29.36
2022-08-30T10:24:05.856Z,29.38
2022-08-30T10:26:37.762Z,29.27
2022-08-30T10:29:12.575Z,29.23
2022-08-30T10:31:47.012Z,29.04
2022-08-30T10:34:19.597Z,29.10
2022-08-30T10:36:52.470Z,29.32
2022-08-30T10:39:25.502Z,29.50
2022-08-30T10:42:01.253Z,29.54
2022-08-30T10:44:35.068Z,29.56
2022-08-30T10:47:18.508Z,29.68
2022-08-30T10:49:56.737Z,29.75
2022-08-30T10:52:34.207Z,29.83
2022-08-30T10:55:08.745Z,29.92
2022-08-30T10:57:38.570Z,29.98
2022-08-30T11:00:17.068Z,29.81
2022-08-30T11:03:23.819Z,29.62
2022-08-30T11:06:13.743Z,29.51
2022-08-30T11:09:19.474Z,29.48
2022-08-30T11:12:01.038Z,29.53
2022-08-30T11:14:31.308Z,29.60
2022-08-30T11:17:03.620Z,29.57
2022-08-30T11:19:39.190Z,29.56
2022-08-30T11:22:15.079Z,29.73
2022-08-30T11:25:13.000Z,29.78
2022-08-30T11:27:51.401Z,30.05
2022-08-30T11:30:48.940Z,30.17
2022-08-30T11:33:42.311Z,30.26
2022-08-30T11:36:58.050Z,30.03
2022-08-30T11:39:55.634Z,30.16
2022-08-30T11:42:30.394Z,30.31
2022-08-30T11:45:36.257Z,30.23
2022-08-30T11:48:07.463Z,30.50
2022-08-30T11:50:44.320Z,30.77
2022-08-30T11:53:26.172Z,30.86
2022-08-30T11:56:06.993Z,30.89
2022-08-30T11:58:48.353Z,30.94
2022-08-30T12:01:41.920Z,30.99
2022-08-30T12:04:15.341Z,30.93
2022-08-30T12:06:57.079Z,30.93
2022-08-30T12:10:04.745Z,30.98
2022-08-30T12:12:52.503Z,30.83
2022-08-30T12:15:57.236Z,30.75
2022-08-30T12:18:43.177Z,30.86
2022-08-30T12:21:27.177Z,30.69
2022-08-30T12:24:03.815Z,30.61
2022-08-30T12:26:36.100Z,30.45
2022-08-30T12:29:12.500Z,30.31
2022-08-30T12:31:42.601Z,30.39
2022-08-30T12:34:18.539Z,30.51
2022-08-30T12:36:53.652Z,30.60
2022-08-30T12:39:25.777Z,30.80
2022-08-30T12:41:54.225Z,30.69
2022-08-30T12:44:26.289Z,30.76
2022-08-30T12:46:59.705Z,30.79
2022-08-30T12:49:31.136Z,30.86
2022-08-30T12:52:17.931Z,30.89
2022-08-30T12:54:47.507Z,31.09
2022-08-30T12:57:32.428Z,31.17
2022-08-30T13:00:07.657Z,31.05
2022-08-30T13:02:46.782Z,30.92
2022-08-30T13:05:45.604Z,30.73
2022-08-30T13:08:20.422Z,30.76
2022-08-30T13:10:55.938Z,30.76
2022-08-30T13:13:53.007Z,30.82
2022-08-30T13:16:29.386Z,31.02
2022-08-30T13:19:25.901Z,31.03
2022-08-30T13:21:55.498Z,31.03
2022-08-30T13:24:25.712Z,31.00
2022-08-30T13:26:55.363Z,31.09
2022-08-30T13:29:26.654Z,31.09
2022-08-30T13:31:56.741Z,31.12
2022-08-30T13:34:24.881Z,31.10
2022-08-30T13:36:55.481Z,31.08
2022-08-30T13:39:23.708Z,30.96
2022-08-30T13:41:52.012Z,30.92
2022-08-30T13:44:20.446Z,30.91
2022-08-30T13:46:54.704Z,31.05
2022-08-30T13:49:43.771Z,31.14
2022-08-30T13:52:22.180Z,31.30
2022-08-30T13:54:51.522Z,31.42
2022-08-30T14:00:14.490Z,31.42
2022-08-30T14:02:47.611Z,31.41
2022-08-30T14:05:46.870Z,31.21
2022-08-30T14:08:44.475Z,31.04
2022-08-30T14:10:58.003Z,31.20
2022-08-30T14:13:29.077Z,31.11
2022-08-30T14:18:46.613Z,31.10
2022-08-30T14:21:15.896Z,31.15
2022-08-30T14:23:43.885Z,31.23
2022-08-30T14:26:15.317Z,31.23
2022-08-30T14:28:45.985Z,31.26
2022-08-30T14:31:20.208Z,31.34
2022-08-30T14:33:48.471Z,31.28
2022-08-30T14:36:18.955Z,31.22
2022-08-30T14:38:47.244Z,31.21
2022-08-30T14:41:16.857Z,31.13
2022-08-30T14:43:45.026Z,31.19
2022-08-30T14:46:13.052Z,31.29
2022-08-30T14:48:41.710Z,31.41
2022-08-30T14:51:16.651Z,31.47
2022-08-30T14:53:46.850Z,31.44
2022-08-30T14:56:17.217Z,31.49
2022-08-30T14:58:49.338Z,31.42
2022-08-30T15:01:18.144Z,31.36
2022-08-30T15:03:46.462Z,31.39
2022-08-30T15:06:14.551Z,31.39
2022-08-30T15:08:42.732Z,31.36
2022-08-30T15:11:19.410Z,31.34
2022-08-30T15:13:47.770Z,31.34
2022-08-30T15:16:17.868Z,31.29
2022-08-30T15:18:46.115Z,31.30
2022-08-30T15:21:14.155Z,31.29
2022-08-30T15:23:44.751Z,31.34
2022-08-30T15:26:12.722Z,31.43
2022-08-30T15:28:41.963Z,31.30
2022-08-30T15:31:09.889Z,31.14
2022-08-30T15:33:38.544Z,30.89
2022-08-30T15:36:08.156Z,30.78
2022-08-30T15:38:39.821Z,30.73
2022-08-30T15:41:12.254Z,30.76
2022-08-30T15:43:42.048Z,30.64
2022-08-30T15:46:19.228Z,30.55
2022-08-30T15:48:48.199Z,30.39
2022-08-30T15:51:17.825Z,30.27
2022-08-30T15:53:46.616Z,30.25
2022-08-30T15:56:15.029Z,30.32
2022-08-30T15:58:44.485Z,30.31
2022-08-30T16:01:15.018Z,30.37
2022-08-30T16:03:43.398Z,30.42
2022-08-30T16:06:14.023Z,30.51
2022-08-30T16:08:42.574Z,30.42
2022-08-30T16:11:13.151Z,30.41
2022-08-30T16:13:42.272Z,30.31
2022-08-30T16:16:11.850Z,30.36
2022-08-30T16:18:40.471Z,30.20
2022-08-30T16:21:10.896Z,30.20
2022-08-30T16:23:40.673Z,30.25
2022-08-30T16:26:14.631Z,30.23
2022-08-30T16:28:45.787Z,30.21
2022-08-30T16:31:17.227Z,30.17
2022-08-30T16:33:45.792Z,30.07
2022-08-30T16:36:14.902Z,29.96
2022-08-30T16:38:42.788Z,29.81
2022-08-30T16:41:13.134Z,29.64
2022-08-30T16:43:46.367Z,29.49
2022-08-30T16:46:23.263Z,29.38
2022-08-30T16:48:55.858Z,29.33
2022-08-30T16:51:25.184Z,29.26
2022-08-30T16:53:56.857Z,29.20
2022-08-30T16:56:27.104Z,29.06
2022-08-30T16:59:01.367Z,29.04
2022-08-30T17:01:34.711Z,29.06
2022-08-30T17:04:04.364Z,28.93
2022-08-30T17:06:33.247Z,28.81
2022-08-30T17:09:05.085Z,28.70
2022-08-30T17:11:33.216Z,28.54
2022-08-30T17:14:01.523Z,28.47
2022-08-30T17:16:31.395Z,28.29
2022-08-30T17:19:01.196Z,28.17
2022-08-30T17:21:29.395Z,28.07
2022-08-30T17:23:58.496Z,28.08
2022-08-30T17:26:31.369Z,28.00
2022-08-30T17:28:59.450Z,28.01
2022-08-30T17:31:30.649Z,27.95
2022-08-30T17:34:04.029Z,27.83
2022-08-30T17:36:35.587Z,27.78
2022-08-30T17:39:10.841Z,27.72
2022-08-30T17:41:50.400Z,27.58
2022-08-30T17:44:20.006Z,27.53
2022-08-30T17:46:48.368Z,27.43
2022-08-30T17:49:18.040Z,27.45
2022-08-30T17:51:47.793Z,27.45
2022-08-30T17:54:16.715Z,27.43
2022-08-30T17:56:46.167Z,27.33
2022-08-30T17:59:15.858Z,27.26
2022-08-30T18:01:45.530Z,27.24
2022-08-30T18:04:19.727Z,27.17
2022-08-30T18:06:49.948Z,27.19
2022-08-30T18:09:19.964Z,27.10
2022-08-30T18:11:48.584Z,27.01
2022-08-30T18:14:18.244Z,26.95
2022-08-30T18:16:52.487Z,26.88
2022-08-30T18:19:23.482Z,26.85
2022-08-30T18:21:53.184Z,26.79
2022-08-30T18:24:21.897Z,26.80
2022-08-30T18:26:50.490Z,26.81
2022-08-30T18:29:26.175Z,26.74
2022-08-30T18:31:58.899Z,26.71
2022-08-30T18:34:26.853Z,26.67
2022-08-30T18:36:56.844Z,26.58
2022-08-30T18:39:25.605Z,26.47
2022-08-30T18:41:54.547Z,26.36
2022-08-30T18:44:28.258Z,26.30
2022-08-30T18:47:00.203Z,26.26
2022-08-30T18:49:29.378Z,26.20
2022-08-30T18:52:02.193Z,26.07
2022-08-30T18:54:31.031Z,26.00
2022-08-30T18:56:59.272Z,25.97
2022-08-30T18:59:35.613Z,25.91
2022-08-30T19:02:06.083Z,25.76
2022-08-30T19:04:35.617Z,25.66
2022-08-30T19:07:07.771Z,25.62
2022-08-30T19:09:36.571Z,25.62
2022-08-30T19:12:09.491Z,25.64
2022-08-30T19:14:39.243Z,25.64
2022-08-30T19:17:08.251Z,25.66
2022-08-30T19:19:37.288Z,25.66
2022-08-30T19:22:16.829Z,25.58
2022-08-30T19:24:44.784Z,25.52
2022-08-30T19:27:12.695Z,25.49
2022-08-30T19:29:40.758Z,25.50
2022-08-30T19:32:09.005Z,25.44
2022-08-30T19:34:38.276Z,25.41
2022-08-30T19:37:06.370Z,25.35
2022-08-30T19:39:35.948Z,25.33
2022-08-30T19:42:04.568Z,25.20
2022-08-30T19:44:32.657Z,25.15
2022-08-30T19:47:01.952Z,25.07
2022-08-30T19:49:30.415Z,25.02
2022-08-30T19:51:59.816Z,24.94
2022-08-30T19:54:27.706Z,24.88
2022-08-30T19:56:57.060Z,24.77
2022-08-30T19:59:24.999Z,24.75
2022-08-30T20:01:53.065Z,24.75
2022-08-30T20:04:21.396Z,24.69
2022-08-30T20:06:50.681Z,24.60
2022-08-30T20:09:19.149Z,24.51
2022-08-30T20:11:52.519Z,24.47
2022-08-30T20:14:24.831Z,24.41
2022-08-30T20:16:53.414Z,24.38
2022-08-30T20:19:21.948Z,24.38
2022-08-30T20:21:55.814Z,24.33
2022-08-30T20:27:04.373Z,24.29
2022-08-30T20:29:34.534Z,24.31
2022-08-30T20:32:03.563Z,24.37
2022-08-30T20:34:31.649Z,24.35
2022-08-30T20:36:59.830Z,24.37
2022-08-30T20:39:27.980Z,24.41
2022-08-30T20:41:56.134Z,24.42
2022-08-30T20:44:24.237Z,24.42
2022-08-30T20:46:53.713Z,24.39
2022-08-30T20:49:22.033Z,24.37
2022-08-30T20:51:54.217Z,24.30
2022-08-30T20:54:22.586Z,24.26
2022-08-30T20:56:51.475Z,24.20
2022-08-30T20:59:19.678Z,24.12
2022-08-30T21:01:49.172Z,24.08
2022-08-30T21:04:19.592Z,23.99
2022-08-30T21:06:47.471Z,23.95
2022-08-30T21:09:16.363Z,23.88
2022-08-30T21:11:45.309Z,23.84
2022-08-30T21:14:13.672Z,23.81
2022-08-30T21:16:42.131Z,23.75
2022-08-30T21:19:10.312Z,23.69
2022-08-30T21:21:39.617Z,23.67
2022-08-30T21:24:10.162Z,23.61
2022-08-30T21:26:39.421Z,23.53
2022-08-30T21:29:08.116Z,23.56
2022-08-30T21:31:39.124Z,23.54
2022-08-30T21:34:07.573Z,23.56
2022-08-30T21:36:47.921Z,23.60
2022-08-30T21:39:29.630Z,23.56
2022-08-30T21:41:58.057Z,23.64
2022-08-30T21:44:27.552Z,23.65
2022-08-30T21:46:56.269Z,23.68
2022-08-30T21:49:25.780Z,23.64
2022-08-30T21:51:55.601Z,23.63
2022-08-30T21:54:28.345Z,23.57
2022-08-30T21:57:01.662Z,23.50
2022-08-30T21:59:29.897Z,23.44
2022-08-30T22:01:59.062Z,23.44
2022-08-30T22:04:27.156Z,23.37
2022-08-30T22:06:55.098Z,23.33
2022-08-30T22:09:26.597Z,23.32
2022-08-30T22:11:55.241Z,23.26
2022-08-30T22:14:24.640Z,23.20
2022-08-30T22:16:54.534Z,23.18
2022-08-30T22:19:23.543Z,23.10
2022-08-30T22:21:52.225Z,23.05
2022-08-30T22:24:22.303Z,22.98
2022-08-30T22:26:51.916Z,22.93
2022-08-30T22:29:20.112Z,22.92
2022-08-30T22:31:48.291Z,22.90
2022-08-30T22:34:16.549Z,22.88
2022-08-30T22:36:44.659Z,22.91
2022-08-30T22:39:13.390Z,22.94
2022-08-30T22:41:42.902Z,22.97
2022-08-30T22:44:13.179Z,22.98
2022-08-30T22:46:42.077Z,22.98
2022-08-30T22:49:11.752Z,22.98
2022-08-30T22:51:41.745Z,22.97
2022-08-30T22:54:10.918Z,22.98
2022-08-30T22:56:40.280Z,22.96
2022-08-30T22:59:08.825Z,22.95
2022-08-30T23:01:43.096Z,22.86
2022-08-30T23:04:12.958Z,22.78
2022-08-30T23:06:41.898Z,22.76
2022-08-30T23:09:18.362Z,22.78
2022-08-30T23:11:46.571Z,22.67
2022-08-30T23:14:14.495Z,22.58
2022-08-30T23:16:43.895Z,22.49
2022-08-30T23:19:11.916Z,22.45
2022-08-30T23:21:39.879Z,22.40
2022-08-30T23:24:25.962Z,22.34
2022-08-30T23:27:11.709Z,22.30
2022-08-30T23:29:58.866Z,22.21
2022-08-30T23:32:45.986Z,22.18
2022-08-30T23:35:31.996Z,22.11
2022-08-30T23:38:18.138Z,22.09
2022-08-30T23:41:03.869Z,22.08
2022-08-30T23:43:49.225Z,22.05
2022-08-30T23:46:34.497Z,22.03
2022-08-30T23:49:22.318Z,21.93
2022-08-30T23:52:07.994Z,21.90
2022-08-30T23:54:54.946Z,21.90
2022-08-30T23:57:43.945Z,21.94
